Time;durP1;ratioP1;P1;durP2;ratioP2;P2;SDS_P1;SDS_P2;PMS_P1;PMS_P2;Temp;Humidity;BMP_temperature;BMP_pressure;BME280_temperature;BME280_humidity;BME280_pressure;Samples;Min_cycle;Max_cycle;Signal;HPM_P1;HPM_P2
2022/09/01 00:00:05;;;;;;;3.17;2.80;;;;;;;15.29;47.39;101495.00;679522;29;1644;-92
2022/09/01 00:00:27;;;;;;;3.20;2.90;;;;;;;15.22;47.36;101474.69;685937;28;1120;-92
2022/09/01 00:00:51;;;;;;;3.58;2.70;;;;;;;15.26;47.71;101487.06;680831;28;1742;-92
2022/09/01 00:01:19;;;;;;;3.50;2.60;;;;;;;15.29;47.80;101494.09;679718;29;1216;-92
2022/09/01 00:01:43;;;;;;;5.47;2.70;;;;;;;15.26;47.70;101486.16;675457;29;1363;-92
2022/09/01 00:02:07;;;;;;;5.43;2.90;;;;;;;15.24;47.72;101493.13;677998;29;1396;-92
2022/09/01 00:02:28;;;;;;;4.38;3.03;;;;;;;15.26;47.73;101492.31;686000;28;1181;-92
2022/09/01 00:02:49;;;;;;;3.10;2.80;;;;;;;15.25;47.64;101494.91;680719;29;1312;-92
2022/09/01 00:03:11;;;;;;;2.88;2.60;;;;;;;15.24;47.69;101501.91;680754;29;1364;-92
2022/09/01 00:03:32;;;;;;;4.38;2.70;;;;;;;15.14;47.88;101486.75;686067;28;1209;-92
2022/09/01 00:03:54;;;;;;;5.57;2.75;;;;;;;15.13;47.93;101485.00;678064;28;1685;-92
2022/09/01 00:04:19;;;;;;;6.80;3.20;;;;;;;15.20;47.94;101498.28;681007;29;1552;-92
2022/09/01 00:04:43;;;;;;;5.50;3.20;;;;;;;15.13;48.15;101485.84;683268;29;1476;-92
2022/09/01 00:05:04;;;;;;;3.67;2.95;;;;;;;15.15;48.01;101488.53;672921;29;1293;-92
2022/09/01 00:05:25;;;;;;;4.20;2.70;;;;;;;15.16;48.17;101491.19;680703;29;1370;-91
2022/09/01 00:05:55;;;;;;;4.00;2.90;;;;;;;15.10;47.98;101485.81;683249;29;1916;-92
2022/09/01 00:06:21;;;;;;;3.17;2.88;;;;;;;15.10;47.99;101484.94;683161;28;1454;-92
2022/09/01 00:06:42;;;;;;;3.05;2.80;;;;;;;15.04;47.93;101483.03;686183;28;1368;-92
2022/09/01 00:07:08;;;;;;;3.97;2.80;;;;;;;15.11;47.98;101494.59;680272;29;1350;-92
2022/09/01 00:07:30;;;;;;;5.25;3.00;;;;;;;15.07;47.88;101488.38;685896;28;1259;-92
2022/09/01 00:07:51;;;;;;;6.30;3.10;;;;;;;15.12;48.17;101501.63;681711;29;1455;-92
2022/09/01 00:08:12;;;;;;;4.50;2.85;;;;;;;15.05;48.24;101485.72;678219;28;1284;-92
2022/09/01 00:08:34;;;;;;;5.30;2.80;;;;;;;15.08;47.89;101493.66;675446;29;1318;-92
2022/09/01 00:08:57;;;;;;;4.35;2.70;;;;;;;14.99;48.00;101477.69;679444;29;1609;-92
2022/09/01 00:09:25;;;;;;;4.60;2.60;;;;;;;15.07;48.07;101497.13;677928;29;1047;-92
2022/09/01 00:09:46;;;;;;;4.77;2.90;;;;;;;15.02;48.23;101488.28;681285;28;1292;-93
2022/09/01 00:10:08;;;;;;;3.90;2.83;;;;;;;15.04;48.15;101494.47;685225;28;1875;-93
2022/09/01 00:10:29;;;;;;;3.60;2.90;;;;;;;15.01;48.21;101491.75;680740;29;1113;-93
2022/09/01 00:10:50;;;;;;;4.22;2.70;;;;;;;15.06;48.38;101500.63;684146;28;1378;-92
2022/09/01 00:11:12;;;;;;;4.90;2.70;;;;;;;15.03;48.11;101491.78;675394;29;1303;-92
2022/09/01 00:11:34;;;;;;;4.00;2.43;;;;;;;15.04;48.34;101497.09;678022;29;1122;-92
2022/09/01 00:11:54;;;;;;;3.13;2.40;;;;;;;14.97;48.22;101482.03;685120;28;1584;-92
2022/09/01 00:12:21;;;;;;;2.78;2.58;;;;;;;15.01;48.14;101486.50;686041;28;1261;-92
2022/09/01 00:12:44;;;;;;;3.53;2.70;;;;;;;14.97;48.05;101468.91;677906;29;1379;-92
2022/09/01 00:13:06;;;;;;;5.40;2.60;;;;;;;15.09;48.07;101497.19;683132;29;1432;-92
2022/09/01 00:13:26;;;;;;;5.60;2.83;;;;;;;15.06;48.16;101491.88;680534;29;1324;-92
2022/09/01 00:13:49;;;;;;;4.45;2.80;;;;;;;15.06;48.07;101484.84;678088;29;1315;-92
2022/09/01 00:14:11;;;;;;;2.95;2.70;;;;;;;15.08;48.01;101496.28;686717;28;1212;-92
2022/09/01 00:14:36;;;;;;;3.03;2.72;;;;;;;15.07;48.03;101491.00;677930;28;1364;-92
2022/09/01 00:14:57;;;;;;;2.97;2.67;;;;;;;15.05;48.20;101493.59;675549;29;1342;-92
2022/09/01 00:15:18;;;;;;;3.05;2.75;;;;;;;14.99;48.29;101492.59;685653;28;1213;-92
2022/09/01 00:15:47;;;;;;;3.10;2.80;;;;;;;15.00;48.37;101499.63;677971;29;1224;-91
2022/09/01 00:16:13;;;;;;;3.10;2.80;;;;;;;14.95;48.37;101491.66;679083;28;1814;-92
2022/09/01 00:16:34;;;;;;;3.20;2.70;;;;;;;14.92;48.51;101491.56;685818;28;1193;-92
2022/09/01 00:16:56;;;;;;;2.70;2.50;;;;;;;14.90;48.57;101488.91;685311;28;1639;-91
2022/09/01 00:17:17;;;;;;;2.60;2.40;;;;;;;14.84;48.53;101473.00;680941;29;1058;-92
2022/09/01 00:17:40;;;;;;;2.50;2.30;;;;;;;14.91;48.41;101484.53;675727;29;1262;-92
2022/09/01 00:18:05;;;;;;;2.50;2.30;;;;;;;14.95;48.39;101491.66;678302;28;1367;-91
2022/09/01 00:18:26;;;;;;;2.40;2.20;;;;;;;14.95;48.47;101491.66;681260;29;1119;-92
2022/09/01 00:18:50;;;;;;;2.60;2.40;;;;;;;14.98;48.68;101494.31;675658;29;1230;-92
2022/09/01 00:19:11;;;;;;;3.70;2.60;;;;;;;14.96;48.39;101493.41;681078;29;1126;-92
2022/09/01 00:19:32;;;;;;;3.47;2.65;;;;;;;14.95;48.42;101489.00;681198;29;1269;-92
2022/09/01 00:19:56;;;;;;;3.40;2.60;;;;;;;14.95;48.53;101489.00;678638;29;1230;-92
2022/09/01 00:20:17;;;;;;;3.00;2.70;;;;;;;14.96;48.46;101490.78;678459;29;1391;-91
2022/09/01 00:20:38;;;;;;;3.00;2.70;;;;;;;15.00;48.61;101497.00;681153;29;1163;-92
2022/09/01 00:20:59;;;;;;;2.97;2.50;;;;;;;15.00;48.29;101492.59;678399;29;2026;-91
2022/09/01 00:21:27;;;;;;;2.65;2.38;;;;;;;15.01;48.38;101496.13;680979;29;1373;-91
2022/09/01 00:21:48;;;;;;;3.95;2.50;;;;;;;15.04;48.35;101501.44;686260;28;1196;-92
2022/09/01 00:22:08;;;;;;;3.60;2.70;;;;;;;15.06;48.41;101505.88;678564;29;1177;-91
2022/09/01 00:22:29;;;;;;;3.80;3.00;;;;;;;15.06;48.50;101503.25;681027;29;1472;-92
2022/09/01 00:22:51;;;;;;;3.22;2.92;;;;;;;15.05;48.46;101496.22;681414;29;2068;-92
2022/09/01 00:23:12;;;;;;;3.60;2.85;;;;;;;15.02;48.58;101496.19;675913;29;1338;-92
2022/09/01 00:23:36;;;;;;;3.67;2.80;;;;;;;15.03;48.50;101494.41;676043;29;1276;-92
2022/09/01 00:23:56;;;;;;;3.55;2.90;;;;;;;15.08;48.47;101504.16;682647;29;1733;-92
2022/09/01 00:24:21;;;;;;;3.13;2.83;;;;;;;15.07;48.63;101506.78;681069;29;1390;-92
2022/09/01 00:24:42;;;;;;;3.67;2.75;;;;;;;15.01;48.46;101489.13;678323;29;1387;-92
2022/09/01 00:25:18;;;;;;;4.47;2.70;;;;;;;15.10;48.63;101505.97;681138;29;1281;-92
2022/09/01 00:25:39;;;;;;;4.50;2.60;;;;;;;15.04;48.38;101496.19;680791;29;1982;-92
2022/09/01 00:26:01;;;;;;;4.90;2.60;;;;;;;15.04;48.46;101496.19;682369;29;1576;-92
2022/09/01 00:26:22;;;;;;;4.70;2.60;;;;;;;15.10;48.47;101490.19;686014;28;1052;-92
2022/09/01 00:26:46;;;;;;;3.65;2.45;;;;;;;15.13;48.60;101506.03;683485;28;1106;-92
2022/09/01 00:27:07;;;;;;;2.58;2.38;;;;;;;15.12;48.65;101499.00;678231;29;1436;-92
2022/09/01 00:27:31;;;;;;;2.50;2.30;;;;;;;15.13;48.58;101503.38;678127;29;1086;-92
2022/09/01 00:27:53;;;;;;;4.20;2.40;;;;;;;15.18;48.65;101502.63;678040;29;1744;-92
2022/09/01 00:28:13;;;;;;;4.60;2.40;;;;;;;15.10;48.53;101491.06;677004;29;1237;-92
2022/09/01 00:28:36;;;;;;;4.40;2.50;;;;;;;15.15;48.53;101501.69;680551;29;1393;-92
2022/09/01 00:28:57;;;;;;;2.97;2.40;;;;;;;15.15;48.65;101501.69;675384;29;1257;-92
2022/09/01 00:29:18;;;;;;;3.20;2.47;;;;;;;15.10;48.80;101492.81;677938;29;1302;-92
2022/09/01 00:29:39;;;;;;;4.18;2.80;;;;;;;15.07;48.64;101497.13;680666;29;1212;-92
2022/09/01 00:30:00;;;;;;;3.38;2.85;;;;;;;15.10;48.50;101487.56;677389;29;1496;-92
2022/09/01 00:30:21;;;;;;;3.72;3.00;;;;;;;15.20;48.26;101498.28;680508;29;1152;-92
2022/09/01 00:30:42;;;;;;;3.00;2.70;;;;;;;15.28;48.25;101500.22;680435;29;1301;-92
2022/09/01 00:31:05;;;;;;;3.47;2.60;;;;;;;15.32;48.15;101497.66;672363;29;1386;-92
2022/09/01 00:31:26;;;;;;;5.13;2.50;;;;;;;15.34;47.94;101506.50;677614;29;1256;-92
2022/09/01 00:31:50;;;;;;;6.55;2.55;;;;;;;15.32;48.05;101497.66;683363;29;1185;-92
2022/09/01 00:32:12;;;;;;;4.45;2.47;;;;;;;15.35;47.99;101505.63;678055;29;1222;-92
2022/09/01 00:32:35;;;;;;;2.40;2.20;;;;;;;15.32;48.15;101502.94;677981;29;1084;-92
2022/09/01 00:32:56;;;;;;;2.75;2.42;;;;;;;15.25;48.19;101487.91;682256;29;1310;-91
2022/09/01 00:33:17;;;;;;;3.33;2.70;;;;;;;15.36;48.19;101509.13;683010;28;1209;-91
2022/09/01 00:33:38;;;;;;;3.65;2.83;;;;;;;15.28;48.06;101490.59;680578;29;1262;-92
2022/09/01 00:33:59;;;;;;;2.95;2.65;;;;;;;15.35;47.95;101500.38;684268;28;1520;-91
2022/09/01 00:34:20;;;;;;;2.80;2.53;;;;;;;15.39;47.97;101513.56;685778;28;1462;-92
2022/09/01 00:34:41;;;;;;;2.65;2.45;;;;;;;15.30;48.07;101494.13;688555;28;1250;-91
2022/09/01 00:35:04;;;;;;;2.88;2.58;;;;;;;15.39;48.13;101503.06;680364;29;2032;-92
2022/09/01 00:35:25;;;;;;;2.60;2.40;;;;;;;15.40;47.95;101505.72;680263;29;1252;-92
2022/09/01 00:35:46;;;;;;;3.10;2.33;;;;;;;15.36;47.83;101496.00;680525;29;1397;-91
2022/09/01 00:36:08;;;;;;;3.15;2.35;;;;;;;15.33;48.08;101498.56;688497;28;1240;-92
2022/09/01 00:36:29;;;;;;;4.15;2.60;;;;;;;15.37;47.83;101504.78;685818;28;1260;-92
2022/09/01 00:36:50;;;;;;;3.30;2.53;;;;;;;15.43;48.01;101515.44;683154;28;1652;-92
2022/09/01 00:37:10;;;;;;;3.45;2.65;;;;;;;15.33;47.99;101499.47;678000;29;1307;-92
2022/09/01 00:37:31;;;;;;;2.93;2.63;;;;;;;15.37;47.84;101508.31;677776;28;1216;-92
2022/09/01 00:37:52;;;;;;;3.65;2.67;;;;;;;15.40;47.97;101510.09;682609;29;1786;-92
2022/09/01 00:38:16;;;;;;;4.15;2.72;;;;;;;15.40;47.93;101504.81;680584;29;1160;-92
2022/09/01 00:38:40;;;;;;;4.47;2.80;;;;;;;15.38;47.87;101496.94;677862;29;1138;-92
2022/09/01 00:39:02;;;;;;;3.55;2.90;;;;;;;15.41;48.09;101511.84;677822;29;1638;-92
2022/09/01 00:39:26;;;;;;;4.50;2.97;;;;;;;15.37;48.00;101504.78;677950;29;1322;-92
2022/09/01 00:39:46;;;;;;;3.92;2.72;;;;;;;15.35;47.97;101507.38;683428;28;1495;-91
2022/09/01 00:40:10;;;;;;;3.00;2.75;;;;;;;15.31;48.14;101495.03;679647;29;1616;-92
2022/09/01 00:40:31;;;;;;;3.30;2.55;;;;;;;15.35;47.84;101503.00;680317;29;1254;-91
2022/09/01 00:40:53;;;;;;;3.42;2.50;;;;;;;15.29;48.12;101500.25;680973;28;1669;-91
2022/09/01 00:41:18;;;;;;;3.03;2.40;;;;;;;15.34;48.02;101510.88;685796;28;1420;-92
2022/09/01 00:41:43;;;;;;;3.10;2.40;;;;;;;15.38;48.15;101517.06;680835;29;1233;-92
2022/09/01 00:42:04;;;;;;;2.90;2.45;;;;;;;15.33;48.22;101510.00;677856;29;1680;-92
2022/09/01 00:42:30;;;;;;;2.70;2.50;;;;;;;15.28;48.16;101500.22;680352;29;1242;-92
2022/09/01 00:42:52;;;;;;;2.60;2.40;;;;;;;15.31;48.12;101516.94;680502;29;1260;-93
2022/09/01 00:43:21;;;;;;;3.80;2.60;;;;;;;15.30;48.17;101509.03;677812;29;1217;-92
2022/09/01 00:43:45;;;;;;;3.97;2.60;;;;;;;15.19;48.17;101499.13;683151;29;1317;-92
2022/09/01 00:44:10;;;;;;;2.80;2.50;;;;;;;15.24;48.23;101507.16;677755;29;2003;-92
2022/09/01 00:44:31;;;;;;;2.80;2.60;;;;;;;15.26;48.32;101500.19;680510;29;1185;-92
2022/09/01 00:44:52;;;;;;;3.10;2.70;;;;;;;15.25;48.35;101506.31;680792;28;1176;-92
2022/09/01 00:45:16;;;;;;;2.90;2.60;;;;;;;15.23;48.09;101502.75;675387;29;1143;-92
2022/09/01 00:45:36;;;;;;;3.42;2.72;;;;;;;15.21;48.22;101505.38;677732;29;1919;-93
2022/09/01 00:45:57;;;;;;;3.20;2.83;;;;;;;15.26;48.29;101508.09;685902;28;1572;-92
2022/09/01 00:46:28;;;;;;;3.20;2.75;;;;;;;15.16;48.55;101506.06;680354;29;1545;-92
2022/09/01 00:46:50;;;;;;;3.47;2.60;;;;;;;15.08;48.49;101498.91;680808;29;1727;-92
2022/09/01 00:47:13;;;;;;;4.07;2.70;;;;;;;15.00;48.55;101497.00;677916;29;1352;-92
2022/09/01 00:47:35;;;;;;;3.20;2.63;;;;;;;14.99;48.72;101501.34;680470;29;1245;-92
2022/09/01 00:48:04;;;;;;;2.85;2.40;;;;;;;14.99;48.82;101506.59;680597;29;1259;-92
2022/09/01 00:48:26;;;;;;;2.90;2.40;;;;;;;14.97;48.87;101500.44;683027;29;1251;-92
2022/09/01 00:48:52;;;;;;;3.00;2.60;;;;;;;14.99;48.90;101513.63;678470;29;1331;-92
2022/09/01 00:49:25;;;;;;;3.10;2.60;;;;;;;14.93;49.07;101499.47;677945;29;1222;-92
2022/09/01 00:49:50;;;;;;;2.70;2.30;;;;;;;14.91;48.96;101487.16;675194;29;1128;-92
2022/09/01 00:50:13;;;;;;;2.42;2.22;;;;;;;15.03;48.88;101504.94;672711;29;1431;-92
2022/09/01 00:50:35;;;;;;;2.63;2.20;;;;;;;15.03;48.99;101502.31;683093;29;1314;-92
2022/09/01 00:50:56;;;;;;;3.90;2.40;;;;;;;15.00;49.20;101497.88;684672;28;1779;-92
2022/09/01 00:51:17;;;;;;;4.20;2.50;;;;;;;15.02;48.82;101498.81;677904;29;1242;-92
2022/09/01 00:51:46;;;;;;;4.32;2.70;;;;;;;15.04;48.93;101501.44;670156;29;1072;-91
2022/09/01 00:52:28;;;;;;;4.70;2.90;;;;;;;15.06;48.85;101505.00;679342;29;1281;-92
2022/09/01 00:52:53;;;;;;;4.53;2.80;;;;;;;14.99;48.95;101503.97;685935;28;1162;-92
2022/09/01 00:53:14;;;;;;;3.25;2.65;;;;;;;14.95;48.90;101496.91;680292;29;1199;-92
2022/09/01 00:53:41;;;;;;;3.00;2.60;;;;;;;14.88;49.48;101495.84;675306;29;1214;-92
2022/09/01 00:54:04;;;;;;;2.60;2.30;;;;;;;14.83;49.09;101488.75;679543;29;1261;-92
2022/09/01 00:54:38;;;;;;;2.40;2.20;;;;;;;14.94;49.12;101500.38;688374;28;1345;-92
2022/09/01 00:55:10;;;;;;;5.22;2.60;;;;;;;14.87;49.24;101491.47;680903;28;1273;-92
2022/09/01 00:55:33;;;;;;;5.13;2.60;;;;;;;14.90;49.10;101503.78;677969;29;1439;-92
2022/09/01 00:55:55;;;;;;;3.13;2.50;;;;;;;14.88;49.19;101495.00;681244;29;1355;-92
2022/09/01 00:56:17;;;;;;;3.30;2.50;;;;;;;14.85;49.36;101492.28;677864;29;1471;-92
2022/09/01 00:56:39;;;;;;;3.33;2.45;;;;;;;14.88;49.40;101500.25;683225;29;1817;-92
2022/09/01 00:57:03;;;;;;;3.38;2.40;;;;;;;14.78;49.20;101489.53;682878;29;1820;-92
2022/09/01 00:57:24;;;;;;;3.40;2.50;;;;;;;14.78;49.37;101494.78;680469;29;1197;-92
2022/09/01 00:57:46;;;;;;;3.40;2.55;;;;;;;14.76;49.25;101490.34;683261;28;1318;-92
2022/09/01 00:58:07;;;;;;;2.55;2.35;;;;;;;14.82;49.36;101502.72;683307;29;1242;-92
2022/09/01 00:58:35;;;;;;;2.92;2.17;;;;;;;14.70;49.37;101485.84;680505;29;1289;-92
2022/09/01 00:59:01;;;;;;;3.03;2.50;;;;;;;14.74;49.51;101502.56;678042;29;1341;-92
2022/09/01 00:59:23;;;;;;;2.95;2.67;;;;;;;14.71;49.41;101492.88;672680;29;1278;-92
2022/09/01 00:59:57;;;;;;;2.80;2.60;;;;;;;14.64;49.53;101488.34;680523;29;1418;-94
2022/09/01 01:00:22;;;;;;;2.90;2.70;;;;;;;14.73;49.38;101511.28;683063;28;1428;-92
2022/09/01 01:00:45;;;;;;;3.05;2.50;;;;;;;14.63;49.87;101499.69;672726;29;1260;-92
2022/09/01 01:01:07;;;;;;;3.00;2.30;;;;;;;14.59;49.67;101493.50;679932;29;1759;-92
2022/09/01 01:01:30;;;;;;;3.10;2.30;;;;;;;14.53;49.77;101486.34;686042;28;1369;-92
2022/09/01 01:01:52;;;;;;;4.90;2.50;;;;;;;14.61;49.81;101498.75;688938;28;1247;-92
2022/09/01 01:02:13;;;;;;;5.97;2.42;;;;;;;14.55;49.88;101489.00;683364;28;1228;-93
2022/09/01 01:02:35;;;;;;;4.88;2.58;;;;;;;14.56;50.01;101498.66;678006;29;1249;-92
2022/09/01 01:03:01;;;;;;;4.53;2.45;;;;;;;14.50;49.78;101488.03;685103;28;1315;-93
2022/09/01 01:03:22;;;;;;;3.20;2.40;;;;;;;14.59;49.87;101508.34;686642;28;1267;-92
2022/09/01 01:03:46;;;;;;;4.10;2.40;;;;;;;14.55;50.09;101501.28;683863;29;1196;-92
2022/09/01 01:04:15;;;;;;;3.90;2.58;;;;;;;14.50;50.10;101502.03;683814;28;1086;-92
2022/09/01 01:04:36;;;;;;;4.20;2.60;;;;;;;14.56;50.05;101497.78;683919;28;1210;-93
2022/09/01 01:04:58;;;;;;;2.72;2.50;;;;;;;14.47;50.31;101499.34;681166;28;1253;-92
2022/09/01 01:05:20;;;;;;;2.90;2.60;;;;;;;14.45;50.38;101498.41;683860;28;1267;-91
2022/09/01 01:05:52;;;;;;;3.30;2.70;;;;;;;14.46;50.30;101502.81;684031;28;1888;-92
2022/09/01 01:06:18;;;;;;;7.53;2.78;;;;;;;14.42;50.27;101500.97;683728;28;1194;-92
2022/09/01 01:06:39;;;;;;;7.00;2.67;;;;;;;14.43;50.38;101502.72;683959;28;1231;-92
2022/09/01 01:07:01;;;;;;;6.35;2.78;;;;;;;14.39;50.34;101500.91;683988;28;1097;-93
2022/09/01 01:07:22;;;;;;;4.50;2.50;;;;;;;14.37;50.61;101497.31;686279;28;1483;-91
2022/09/01 01:07:45;;;;;;;4.80;2.38;;;;;;;14.27;50.59;101479.59;676066;29;1236;-92
2022/09/01 01:08:10;;;;;;;2.67;2.20;;;;;;;14.28;50.70;101486.63;678346;29;1352;-92
2022/09/01 01:08:33;;;;;;;2.75;2.30;;;;;;;14.25;50.86;101479.53;680627;29;1096;-92
2022/09/01 01:08:57;;;;;;;3.40;2.40;;;;;;;14.30;50.88;101490.16;683156;29;2112;-92
2022/09/01 01:09:21;;;;;;;3.78;2.30;;;;;;;14.33;50.85;101506.00;684133;29;1351;-92
2022/09/01 01:09:45;;;;;;;3.75;2.30;;;;;;;14.30;50.82;101490.16;679045;29;1331;-93
2022/09/01 01:10:06;;;;;;;4.05;2.25;;;;;;;14.34;50.91;101506.06;681555;29;1983;-92
2022/09/01 01:10:31;;;;;;;4.82;2.40;;;;;;;14.28;50.81;101497.13;683753;28;1189;-92
2022/09/01 01:10:55;;;;;;;4.57;2.50;;;;;;;14.23;50.81;101492.66;689136;28;1381;-92
2022/09/01 01:11:16;;;;;;;5.68;2.70;;;;;;;14.24;50.88;101494.44;683646;29;1779;-93
2022/09/01 01:11:39;;;;;;;3.72;2.53;;;;;;;14.27;51.11;101501.50;679427;29;1601;-93
2022/09/01 01:12:03;;;;;;;3.10;2.53;;;;;;;14.25;50.93;101506.69;677693;29;2286;-92
2022/09/01 01:12:29;;;;;;;2.65;2.40;;;;;;;14.22;50.94;101498.75;683632;29;1073;-93
2022/09/01 01:12:56;;;;;;;3.45;2.42;;;;;;;14.21;51.00;101498.72;683414;29;1362;-92
2022/09/01 01:13:20;;;;;;;4.05;2.50;;;;;;;14.18;51.27;101491.66;678206;29;1213;-93
2022/09/01 01:13:58;;;;;;;4.50;2.60;;;;;;;14.21;51.19;101499.59;678575;29;1261;-92
2022/09/01 01:14:18;;;;;;;4.18;2.58;;;;;;;14.14;51.24;101491.53;684756;28;1285;-93
2022/09/01 01:14:40;;;;;;;6.00;2.63;;;;;;;14.14;51.20;101497.69;681038;29;847;-92
2022/09/01 01:15:02;;;;;;;6.00;2.60;;;;;;;14.14;51.40;101497.69;675505;29;1279;-93
2022/09/01 01:15:24;;;;;;;3.17;2.58;;;;;;;14.11;51.13;101494.97;680977;29;1223;-92
2022/09/01 01:15:58;;;;;;;2.67;2.42;;;;;;;14.13;51.32;101501.13;683497;29;1204;-93
2022/09/01 01:16:20;;;;;;;2.78;2.30;;;;;;;14.11;51.33;101506.38;678710;29;1237;-92
2022/09/01 01:16:46;;;;;;;2.72;2.45;;;;;;;14.07;51.24;101498.34;680826;29;1231;-93
2022/09/01 01:17:10;;;;;;;3.15;2.65;;;;;;;14.10;51.47;101498.41;675391;29;1373;-93
2022/09/01 01:17:31;;;;;;;4.43;2.70;;;;;;;14.06;51.44;101500.06;673743;29;1500;-92
2022/09/01 01:17:52;;;;;;;4.60;2.70;;;;;;;14.02;51.34;101495.56;680691;29;1307;-92
2022/09/01 01:18:16;;;;;;;4.47;2.60;;;;;;;14.04;51.56;101495.63;683172;29;1190;-92
2022/09/01 01:18:38;;;;;;;5.65;2.72;;;;;;;14.05;51.48;101508.78;680591;29;1175;-92
2022/09/01 01:18:59;;;;;;;6.53;2.53;;;;;;;13.91;51.58;101476.97;673762;29;1429;-92
2022/09/01 01:23:07;;;;;;;2.40;2.20;;;;;;;13.94;52.10;101508.50;680134;29;1386;-92
2022/09/01 01:23:39;;;;;;;2.90;2.28;;;;;;;13.92;52.06;101507.59;680441;29;1107;-92
2022/09/01 01:24:08;;;;;;;2.30;2.10;;;;;;;13.92;52.25;101510.22;673722;29;2098;-92
2022/09/01 01:24:33;;;;;;;2.80;2.20;;;;;;;13.89;52.18;101504.88;677684;29;1199;-92
2022/09/01 01:24:54;;;;;;;3.70;2.30;;;;;;;13.89;52.31;101504.88;677735;29;1941;-92
2022/09/01 01:25:17;;;;;;;3.50;2.30;;;;;;;13.83;52.41;101492.50;675297;29;1195;-93
2022/09/01 01:25:52;;;;;;;3.15;2.50;;;;;;;13.86;52.20;101507.44;683037;28;1916;-93
2022/09/01 01:26:19;;;;;;;2.97;2.63;;;;;;;13.86;52.43;101515.31;682587;29;1269;-92
2022/09/01 01:26:40;;;;;;;2.80;2.50;;;;;;;13.77;52.48;101496.69;680632;29;1303;-92
2022/09/01 01:27:02;;;;;;;2.60;2.40;;;;;;;13.79;52.54;101502.88;673914;29;1735;-92
2022/09/01 01:27:30;;;;;;;2.38;2.17;;;;;;;13.82;52.38;101505.56;683185;29;1237;-92
2022/09/01 01:27:51;;;;;;;3.35;2.15;;;;;;;13.82;52.40;101505.56;685892;28;1325;-92
2022/09/01 01:28:15;;;;;;;3.78;2.30;;;;;;;13.83;52.48;101504.75;683075;29;1405;-93
2022/09/01 01:28:39;;;;;;;4.82;2.50;;;;;;;13.80;52.55;101510.78;683174;29;1262;-92
2022/09/01 01:29:02;;;;;;;4.22;2.60;;;;;;;13.69;52.74;101485.97;679253;29;1632;-92
2022/09/01 01:29:27;;;;;;;4.07;2.35;;;;;;;13.77;52.64;101508.06;685884;28;1229;-92
2022/09/01 01:29:52;;;;;;;3.20;2.47;;;;;;;13.74;52.69;101501.84;682967;29;1783;-92
2022/09/01 01:30:18;;;;;;;2.40;2.20;;;;;;;13.75;52.88;101501.03;680651;29;1297;-92
2022/09/01 01:30:42;;;;;;;2.42;2.22;;;;;;;13.75;52.84;101507.13;680499;29;1338;-92
2022/09/01 01:31:10;;;;;;;4.28;2.40;;;;;;;13.65;52.85;101495.50;685707;28;1403;-93
2022/09/01 01:31:31;;;;;;;4.70;2.60;;;;;;;13.69;52.86;101501.72;688393;28;1284;-92
2022/09/01 01:31:56;;;;;;;4.47;2.42;;;;;;;13.65;53.02;101500.75;680794;29;1366;-92
2022/09/01 01:32:17;;;;;;;3.13;2.58;;;;;;;13.67;53.21;101498.19;683074;29;1308;-92
2022/09/01 01:32:41;;;;;;;3.40;2.40;;;;;;;13.60;53.06;101491.91;683203;28;1228;-92
2022/09/01 01:33:04;;;;;;;4.25;2.50;;;;;;;13.64;53.18;101506.84;688447;28;1208;-92
2022/09/01 01:33:29;;;;;;;3.88;2.40;;;;;;;13.64;53.38;101503.34;683074;29;1153;-92
2022/09/01 01:33:54;;;;;;;3.58;2.40;;;;;;;13.66;52.98;101506.91;680442;28;1297;-91
2022/09/01 01:34:16;;;;;;;3.38;2.33;;;;;;;13.62;53.07;101505.03;685531;28;1319;-92
2022/09/01 01:34:41;;;;;;;4.00;2.58;;;;;;;13.64;53.16;101513.84;677780;29;1132;-92
2022/09/01 01:35:04;;;;;;;2.83;2.50;;;;;;;13.52;53.22;101499.53;683064;29;1410;-92
2022/09/01 01:35:26;;;;;;;2.80;2.30;;;;;;;13.56;53.60;101503.13;682935;29;1267;-92
2022/09/01 01:35:51;;;;;;;3.35;2.50;;;;;;;13.55;53.23;101498.72;678003;29;1214;-92
2022/09/01 01:36:31;;;;;;;3.50;2.70;;;;;;;13.61;53.33;101505.88;683222;28;1355;-92
2022/09/01 01:36:54;;;;;;;2.90;2.60;;;;;;;13.61;53.12;101509.41;680521;28;1420;-92
2022/09/01 01:37:14;;;;;;;3.38;2.50;;;;;;;13.60;53.36;101507.63;683142;28;1373;-92
2022/09/01 01:37:35;;;;;;;4.10;2.80;;;;;;;13.62;53.23;101510.28;683039;28;1188;-93
2022/09/01 01:38:01;;;;;;;4.53;2.88;;;;;;;13.54;53.35;101502.22;679699;29;1265;-92
2022/09/01 01:38:22;;;;;;;3.90;2.80;;;;;;;13.51;53.30;101495.13;680478;29;1238;-93
2022/09/01 01:38:52;;;;;;;3.22;2.40;;;;;;;13.52;53.25;101498.66;683227;28;1220;-92
2022/09/01 01:39:19;;;;;;;2.63;2.42;;;;;;;13.57;53.26;101518.00;680479;29;1283;-92
2022/09/01 01:39:43;;;;;;;2.70;2.50;;;;;;;13.55;53.65;101503.97;682846;28;1291;-92
2022/09/01 01:40:04;;;;;;;2.90;2.40;;;;;;;13.53;53.63;101510.94;685448;28;1179;-92
2022/09/01 01:40:27;;;;;;;2.97;2.30;;;;;;;13.51;53.49;101504.75;685761;28;1160;-93
2022/09/01 01:40:53;;;;;;;2.40;2.20;;;;;;;13.48;53.63;101507.28;683824;29;1229;-92
2022/09/01 01:41:19;;;;;;;2.97;2.35;;;;;;;13.56;53.58;101518.88;677970;29;1244;-93
2022/09/01 01:41:44;;;;;;;3.60;2.50;;;;;;;13.52;53.41;101509.16;677876;29;1193;-93
2022/09/01 01:42:09;;;;;;;4.95;2.63;;;;;;;13.45;53.46;101504.59;679754;29;2083;-92
2022/09/01 01:42:32;;;;;;;5.07;2.67;;;;;;;13.47;53.49;101505.50;677721;29;1389;-92
2022/09/01 01:42:56;;;;;;;4.15;2.50;;;;;;;13.43;53.52;101502.81;677854;29;1771;-92
2022/09/01 01:43:22;;;;;;;2.90;2.47;;;;;;;13.49;53.78;101520.44;682982;29;1232;-92
2022/09/01 01:43:47;;;;;;;4.45;2.75;;;;;;;13.41;53.71;101501.84;686087;28;1296;-92
2022/09/01 01:44:10;;;;;;;4.57;2.92;;;;;;;13.42;53.60;101506.25;684609;28;1623;-92
2022/09/01 01:44:32;;;;;;;3.38;2.88;;;;;;;13.43;53.62;101508.06;683013;28;1238;-92
2022/09/01 01:44:55;;;;;;;2.85;2.65;;;;;;;13.43;53.71;101510.69;682943;28;1454;-92
2022/09/01 01:45:19;;;;;;;2.80;2.60;;;;;;;13.43;53.84;101508.06;677700;29;1400;-92
2022/09/01 01:45:40;;;;;;;2.58;2.38;;;;;;;13.42;53.69;101516.75;677860;29;1916;-92
2022/09/01 01:46:06;;;;;;;2.60;2.40;;;;;;;13.31;54.07;101499.81;677616;29;1091;-93
2022/09/01 01:46:35;;;;;;;2.70;2.50;;;;;;;13.32;54.17;101516.47;680391;29;1268;-92
2022/09/01 01:46:57;;;;;;;4.30;2.70;;;;;;;13.20;54.32;101511.75;676027;29;1804;-92
2022/09/01 01:47:19;;;;;;;4.40;2.60;;;;;;;13.21;54.15;101508.28;675092;29;1240;-92
2022/09/01 01:47:41;;;;;;;2.97;2.50;;;;;;;13.20;54.38;101507.38;677946;29;1107;-92
2022/09/01 01:48:07;;;;;;;2.90;2.50;;;;;;;13.31;54.20;101510.31;677799;29;1323;-92
2022/09/01 01:48:33;;;;;;;2.88;2.58;;;;;;;13.33;54.26;101519.09;680098;28;1238;-92
2022/09/01 01:48:54;;;;;;;4.50;2.60;;;;;;;13.29;54.23;101506.78;681213;29;1232;-92
2022/09/01 01:49:20;;;;;;;4.28;2.47;;;;;;;13.19;54.44;101515.19;682979;28;1258;-92
2022/09/01 01:49:42;;;;;;;3.80;2.65;;;;;;;13.16;54.54;101521.25;681849;29;1261;-92
2022/09/01 01:50:08;;;;;;;5.75;2.58;;;;;;;13.24;54.23;101518.84;674834;29;1503;-92
2022/09/01 01:50:34;;;;;;;5.60;2.60;;;;;;;13.16;54.24;101501.16;682889;28;1237;-92
2022/09/01 01:50:59;;;;;;;3.90;2.50;;;;;;;13.16;54.60;101501.16;682009;28;1246;-92
2022/09/01 01:51:26;;;;;;;2.47;2.22;;;;;;;13.27;54.47;101524.19;677872;29;1295;-92
2022/09/01 01:51:51;;;;;;;3.75;2.10;;;;;;;13.15;54.57;101496.78;683199;29;1205;-92
2022/09/01 01:52:16;;;;;;;4.80;2.40;;;;;;;13.22;54.41;101507.44;680197;29;1374;-92
2022/09/01 01:52:39;;;;;;;4.50;2.60;;;;;;;13.26;54.45;101522.38;675088;29;1355;-92
2022/09/01 01:53:05;;;;;;;3.40;2.40;;;;;;;13.23;54.63;101509.22;678016;29;1387;-92
2022/09/01 01:53:27;;;;;;;2.40;2.20;;;;;;;13.21;54.63;101508.28;675145;29;1284;-92
2022/09/01 01:53:51;;;;;;;5.13;2.30;;;;;;;13.16;54.39;101506.41;680512;29;1233;-92
2022/09/01 01:54:14;;;;;;;5.40;2.40;;;;;;;13.21;54.42;101506.53;688343;28;1209;-92
2022/09/01 01:54:36;;;;;;;3.90;2.30;;;;;;;13.28;54.34;101510.25;680309;28;1302;-92
2022/09/01 01:54:57;;;;;;;3.03;2.22;;;;;;;13.36;54.01;101518.31;685639;28;1336;-92
2022/09/01 01:55:18;;;;;;;4.20;2.10;;;;;;;13.36;54.13;101508.72;680512;29;1190;-92
2022/09/01 01:55:40;;;;;;;4.05;2.00;;;;;;;13.41;53.92;101517.59;680509;29;1331;-93
2022/09/01 01:56:03;;;;;;;3.60;2.20;;;;;;;13.41;53.78;101516.72;685789;28;1363;-92